sensor_id;sensor_type;location;lat;lon;timestamp;P1;durP1;ratioP1;P2;durP2;ratioP2
69026;SDS011;56080;47.594;19.116;2022-10-13T00:02:33;1064.70;;;545.80;;
69026;SDS011;56080;47.594;19.116;2022-10-13T00:07:33;1059.90;;;548.80;;
69026;SDS011;56080;47.594;19.116;2022-10-13T00:12:33;1059.90;;;548.80;;
69026;SDS011;56080;47.594;19.116;2022-10-13T00:17:33;1064.90;;;551.80;;
69026;SDS011;56080;47.594;19.116;2022-10-13T00:22:33;1064.90;;;551.80;;
69026;SDS011;56080;47.594;19.116;2022-10-13T00:27:33;1084.80;;;563.30;;
69026;SDS011;56080;47.594;19.116;2022-10-13T00:32:33;1084.80;;;563.30;;
69026;SDS011;56080;47.594;19.116;2022-10-13T00:37:33;1109.10;;;569.90;;
69026;SDS011;56080;47.594;19.116;2022-10-13T00:47:37;1164.40;;;643.50;;
69026;SDS011;56080;47.594;19.116;2022-10-13T00:52:34;1164.40;;;643.50;;
69026;SDS011;56080;47.594;19.116;2022-10-13T00:57:33;1033.80;;;554.10;;
69026;SDS011;56080;47.594;19.116;2022-10-13T01:02:38;1033.80;;;554.10;;
69026;SDS011;56080;47.594;19.116;2022-10-13T01:07:34;1036.10;;;551.10;;
69026;SDS011;56080;47.594;19.116;2022-10-13T01:17:52;1044.00;;;550.30;;
69026;SDS011;56080;47.594;19.116;2022-10-13T01:27:48;1034.30;;;551.00;;
69026;SDS011;56080;47.594;19.116;2022-10-13T01:37:52;1030.10;;;542.70;;
69026;SDS011;56080;47.594;19.116;2022-10-13T01:42:39;1030.10;;;542.70;;
69026;SDS011;56080;47.594;19.116;2022-10-13T01:47:34;1064.30;;;555.80;;
69026;SDS011;56080;47.594;19.116;2022-10-13T01:52:36;1064.30;;;555.80;;
69026;SDS011;56080;47.594;19.116;2022-10-13T01:57:39;1060.10;;;556.30;;
69026;SDS011;56080;47.594;19.116;2022-10-13T02:07:42;1065.40;;;586.70;;
69026;SDS011;56080;47.594;19.116;2022-10-13T02:12:38;1065.40;;;586.70;;
69026;SDS011;56080;47.594;19.116;2022-10-13T02:17:36;1084.50;;;633.40;;
69026;SDS011;56080;47.594;19.116;2022-10-13T02:22:40;1084.50;;;633.40;;
69026;SDS011;56080;47.594;19.116;2022-10-13T02:27:33;1083.30;;;592.20;;
69026;SDS011;56080;47.594;19.116;2022-10-13T02:32:33;1083.30;;;592.20;;
69026;SDS011;56080;47.594;19.116;2022-10-13T02:37:34;1071.00;;;585.80;;
69026;SDS011;56080;47.594;19.116;2022-10-13T02:42:34;1071.00;;;585.80;;
69026;SDS011;56080;47.594;19.116;2022-10-13T02:47:33;1066.50;;;573.50;;
69026;SDS011;56080;47.594;19.116;2022-10-13T02:52:33;1066.50;;;573.50;;
69026;SDS011;56080;47.594;19.116;2022-10-13T02:57:33;1060.90;;;553.00;;
69026;SDS011;56080;47.594;19.116;2022-10-13T03:02:35;1060.90;;;553.00;;
69026;SDS011;56080;47.594;19.116;2022-10-13T03:07:33;1036.10;;;547.90;;
69026;SDS011;56080;47.594;19.116;2022-10-13T03:09:03;1036.10;;;547.90;;
69026;SDS011;56080;47.594;19.116;2022-10-13T03:12:33;1036.10;;;547.90;;
69026;SDS011;56080;47.594;19.116;2022-10-13T03:17:33;1084.20;;;587.50;;
69026;SDS011;56080;47.594;19.116;2022-10-13T03:22:33;1084.20;;;587.50;;
69026;SDS011;56080;47.594;19.116;2022-10-13T03:27:33;1114.00;;;619.50;;
69026;SDS011;56080;47.594;19.116;2022-10-13T03:32:33;1114.00;;;619.50;;
69026;SDS011;56080;47.594;19.116;2022-10-13T03:37:33;1091.50;;;605.50;;
69026;SDS011;56080;47.594;19.116;2022-10-13T03:42:34;1091.50;;;605.50;;
69026;SDS011;56080;47.594;19.116;2022-10-13T03:52:33;1112.40;;;614.90;;
69026;SDS011;56080;47.594;19.116;2022-10-13T03:57:33;1090.40;;;579.00;;
69026;SDS011;56080;47.594;19.116;2022-10-13T04:02:33;1090.40;;;579.00;;
69026;SDS011;56080;47.594;19.116;2022-10-13T04:07:33;1048.50;;;527.50;;
69026;SDS011;56080;47.594;19.116;2022-10-13T04:12:34;1048.50;;;527.50;;
69026;SDS011;56080;47.594;19.116;2022-10-13T04:17:33;1103.10;;;648.40;;
69026;SDS011;56080;47.594;19.116;2022-10-13T04:22:33;1103.10;;;648.40;;
69026;SDS011;56080;47.594;19.116;2022-10-13T04:27:33;1098.40;;;610.60;;
69026;SDS011;56080;47.594;19.116;2022-10-13T04:32:33;1098.40;;;610.60;;
69026;SDS011;56080;47.594;19.116;2022-10-13T04:37:34;1084.30;;;589.80;;
69026;SDS011;56080;47.594;19.116;2022-10-13T04:42:33;1084.30;;;589.80;;
69026;SDS011;56080;47.594;19.116;2022-10-13T04:47:33;1149.60;;;669.00;;
69026;SDS011;56080;47.594;19.116;2022-10-13T04:52:33;1149.60;;;669.00;;
69026;SDS011;56080;47.594;19.116;2022-10-13T04:57:33;1285.10;;;746.40;;
69026;SDS011;56080;47.594;19.116;2022-10-13T05:02:34;1285.10;;;746.40;;
69026;SDS011;56080;47.594;19.116;2022-10-13T05:12:34;1136.90;;;666.40;;
69026;SDS011;56080;47.594;19.116;2022-10-13T05:17:33;1163.30;;;732.90;;
69026;SDS011;56080;47.594;19.116;2022-10-13T05:22:33;1163.30;;;732.90;;
69026;SDS011;56080;47.594;19.116;2022-10-13T05:32:34;1194.10;;;759.20;;
69026;SDS011;56080;47.594;19.116;2022-10-13T05:37:34;1159.50;;;709.70;;
69026;SDS011;56080;47.594;19.116;2022-10-13T05:42:34;1159.50;;;709.70;;
69026;SDS011;56080;47.594;19.116;2022-10-13T05:47:37;1120.00;;;690.40;;
69026;SDS011;56080;47.594;19.116;2022-10-13T05:52:34;1120.00;;;690.40;;
69026;SDS011;56080;47.594;19.116;2022-10-13T05:57:38;1086.00;;;619.50;;
69026;SDS011;56080;47.594;19.116;2022-10-13T06:02:38;1086.00;;;619.50;;
69026;SDS011;56080;47.594;19.116;2022-10-13T06:07:33;1056.60;;;561.40;;
69026;SDS011;56080;47.594;19.116;2022-10-13T06:12:33;1056.60;;;561.40;;
69026;SDS011;56080;47.594;19.116;2022-10-13T06:17:35;1056.20;;;566.60;;
69026;SDS011;56080;47.594;19.116;2022-10-13T06:22:33;1056.20;;;566.60;;
69026;SDS011;56080;47.594;19.116;2022-10-13T06:27:33;1083.80;;;605.40;;
69026;SDS011;56080;47.594;19.116;2022-10-13T06:32:34;1083.80;;;605.40;;
69026;SDS011;56080;47.594;19.116;2022-10-13T06:37:38;1077.80;;;584.20;;
69026;SDS011;56080;47.594;19.116;2022-10-13T06:42:34;1077.80;;;584.20;;
69026;SDS011;56080;47.594;19.116;2022-10-13T06:47:33;1086.10;;;588.70;;
69026;SDS011;56080;47.594;19.116;2022-10-13T06:52:33;1086.10;;;588.70;;
69026;SDS011;56080;47.594;19.116;2022-10-13T06:57:33;1116.40;;;634.50;;
69026;SDS011;56080;47.594;19.116;2022-10-13T07:02:33;1116.40;;;634.50;;
69026;SDS011;56080;47.594;19.116;2022-10-13T07:07:33;1196.90;;;660.70;;
69026;SDS011;56080;47.594;19.116;2022-10-13T07:12:33;1196.90;;;660.70;;
69026;SDS011;56080;47.594;19.116;2022-10-13T07:17:33;1282.60;;;707.60;;
69026;SDS011;56080;47.594;19.116;2022-10-13T07:22:33;1282.60;;;707.60;;
69026;SDS011;56080;47.594;19.116;2022-10-13T07:27:34;1292.30;;;747.10;;
69026;SDS011;56080;47.594;19.116;2022-10-13T07:32:33;1292.30;;;747.10;;
69026;SDS011;56080;47.594;19.116;2022-10-13T07:37:35;1320.90;;;757.80;;
69026;SDS011;56080;47.594;19.116;2022-10-13T07:42:33;1320.90;;;757.80;;
69026;SDS011;56080;47.594;19.116;2022-10-13T07:47:33;1303.40;;;739.70;;
69026;SDS011;56080;47.594;19.116;2022-10-13T07:52:34;1303.40;;;739.70;;
69026;SDS011;56080;47.594;19.116;2022-10-13T07:57:35;1306.70;;;659.70;;
69026;SDS011;56080;47.594;19.116;2022-10-13T08:02:33;1306.70;;;659.70;;
69026;SDS011;56080;47.594;19.116;2022-10-13T08:07:33;1288.20;;;617.70;;
69026;SDS011;56080;47.594;19.116;2022-10-13T08:12:34;1288.20;;;617.70;;
69026;SDS011;56080;47.594;19.116;2022-10-13T08:17:33;1440.60;;;721.70;;
69026;SDS011;56080;47.594;19.116;2022-10-13T08:22:38;1440.60;;;721.70;;
69026;SDS011;56080;47.594;19.116;2022-10-13T08:27:34;1534.10;;;716.20;;
69026;SDS011;56080;47.594;19.116;2022-10-13T08:32:33;1534.10;;;716.20;;
69026;SDS011;56080;47.594;19.116;2022-10-13T08:37:33;1514.00;;;717.70;;
69026;SDS011;56080;47.594;19.116;2022-10-13T08:42:33;1514.00;;;717.70;;
69026;SDS011;56080;47.594;19.116;2022-10-13T08:47:44;1546.00;;;726.10;;
69026;SDS011;56080;47.594;19.116;2022-10-13T08:52:44;1546.00;;;726.10;;
69026;SDS011;56080;47.594;19.116;2022-10-13T08:57:34;1636.60;;;786.00;;
69026;SDS011;56080;47.594;19.116;2022-10-13T09:02:38;1636.60;;;786.00;;
69026;SDS011;56080;47.594;19.116;2022-10-13T09:07:35;1646.90;;;798.80;;
69026;SDS011;56080;47.594;19.116;2022-10-13T09:12:34;1646.90;;;798.80;;
69026;SDS011;56080;47.594;19.116;2022-10-13T09:17:36;1656.40;;;794.80;;
69026;SDS011;56080;47.594;19.116;2022-10-13T09:22:39;1656.40;;;794.80;;
69026;SDS011;56080;47.594;19.116;2022-10-13T09:37:34;1660.20;;;819.00;;
69026;SDS011;56080;47.594;19.116;2022-10-13T09:42:36;1660.20;;;819.00;;
69026;SDS011;56080;47.594;19.116;2022-10-13T09:47:37;1639.00;;;790.90;;
69026;SDS011;56080;47.594;19.116;2022-10-13T09:52:34;1639.00;;;790.90;;
69026;SDS011;56080;47.594;19.116;2022-10-13T09:57:36;1619.30;;;788.00;;
69026;SDS011;56080;47.594;19.116;2022-10-13T10:02:43;1619.30;;;788.00;;
69026;SDS011;56080;47.594;19.116;2022-10-13T10:07:37;1595.00;;;792.70;;
69026;SDS011;56080;47.594;19.116;2022-10-13T10:12:39;1595.00;;;792.70;;
69026;SDS011;56080;47.594;19.116;2022-10-13T10:17:47;1632.30;;;837.60;;
69026;SDS011;56080;47.594;19.116;2022-10-13T10:22:36;1632.30;;;837.60;;
69026;SDS011;56080;47.594;19.116;2022-10-13T10:27:39;1615.90;;;828.90;;
69026;SDS011;56080;47.594;19.116;2022-10-13T10:32:46;1615.90;;;828.90;;
69026;SDS011;56080;47.594;19.116;2022-10-13T10:47:45;1548.30;;;756.40;;
69026;SDS011;56080;47.594;19.116;2022-10-13T10:52:44;1548.30;;;756.40;;
69026;SDS011;56080;47.594;19.116;2022-10-13T10:57:37;1638.10;;;885.90;;
69026;SDS011;56080;47.594;19.116;2022-10-13T11:17:41;1723.60;;;874.40;;
69026;SDS011;56080;47.594;19.116;2022-10-13T11:22:35;1723.60;;;874.40;;
69026;SDS011;56080;47.594;19.116;2022-10-13T11:57:35;1506.10;;;750.00;;
69026;SDS011;56080;47.594;19.116;2022-10-13T12:02:35;1506.10;;;750.00;;
69026;SDS011;56080;47.594;19.116;2022-10-13T12:07:38;1523.80;;;770.90;;
69026;SDS011;56080;47.594;19.116;2022-10-13T12:12:34;1523.80;;;770.90;;
69026;SDS011;56080;47.594;19.116;2022-10-13T12:17:34;1552.10;;;775.60;;
69026;SDS011;56080;47.594;19.116;2022-10-13T12:22:34;1552.10;;;775.60;;
69026;SDS011;56080;47.594;19.116;2022-10-13T12:27:43;1505.60;;;703.40;;
69026;SDS011;56080;47.594;19.116;2022-10-13T12:32:36;1505.60;;;703.40;;
69026;SDS011;56080;47.594;19.116;2022-10-13T12:37:33;1435.70;;;666.70;;
69026;SDS011;56080;47.594;19.116;2022-10-13T12:42:42;1435.70;;;666.70;;
69026;SDS011;56080;47.594;19.116;2022-10-13T12:52:33;1243.90;;;566.30;;
69026;SDS011;56080;47.594;19.116;2022-10-13T12:57:43;1388.60;;;655.40;;
69026;SDS011;56080;47.594;19.116;2022-10-13T13:02:36;1388.60;;;655.40;;
69026;SDS011;56080;47.594;19.116;2022-10-13T13:07:42;1483.60;;;752.00;;
69026;SDS011;56080;47.594;19.116;2022-10-13T13:12:35;1483.60;;;752.00;;
69026;SDS011;56080;47.594;19.116;2022-10-13T13:17:43;1504.10;;;760.50;;
69026;SDS011;56080;47.594;19.116;2022-10-13T13:22:34;1504.10;;;760.50;;
69026;SDS011;56080;47.594;19.116;2022-10-13T13:27:38;1529.10;;;754.70;;
69026;SDS011;56080;47.594;19.116;2022-10-13T13:32:35;1529.10;;;754.70;;
69026;SDS011;56080;47.594;19.116;2022-10-13T13:37:36;1692.70;;;972.60;;
69026;SDS011;56080;47.594;19.116;2022-10-13T13:42:34;1692.70;;;972.60;;
69026;SDS011;56080;47.594;19.116;2022-10-13T13:47:35;1418.30;;;653.00;;
69026;SDS011;56080;47.594;19.116;2022-10-13T13:52:34;1418.30;;;653.00;;
69026;SDS011;56080;47.594;19.116;2022-10-13T14:02:34;1446.90;;;627.00;;
69026;SDS011;56080;47.594;19.116;2022-10-13T14:07:34;1618.30;;;816.10;;
69026;SDS011;56080;47.594;19.116;2022-10-13T14:12:34;1618.30;;;816.10;;
69026;SDS011;56080;47.594;19.116;2022-10-13T14:17:34;1620.60;;;794.20;;
69026;SDS011;56080;47.594;19.116;2022-10-13T14:27:34;1646.40;;;827.20;;
69026;SDS011;56080;47.594;19.116;2022-10-13T14:32:35;1646.40;;;827.20;;
69026;SDS011;56080;47.594;19.116;2022-10-13T14:37:38;1641.10;;;812.40;;
69026;SDS011;56080;47.594;19.116;2022-10-13T14:42:33;1641.10;;;812.40;;
69026;SDS011;56080;47.594;19.116;2022-10-13T14:47:34;1455.70;;;706.00;;
69026;SDS011;56080;47.594;19.116;2022-10-13T14:52:33;1455.70;;;706.00;;
69026;SDS011;56080;47.594;19.116;2022-10-13T14:57:34;1479.40;;;748.80;;
69026;SDS011;56080;47.594;19.116;2022-10-13T15:02:33;1479.40;;;748.80;;
69026;SDS011;56080;47.594;19.116;2022-10-13T15:07:40;1487.10;;;829.50;;
69026;SDS011;56080;47.594;19.116;2022-10-13T15:12:36;1487.10;;;829.50;;
69026;SDS011;56080;47.594;19.116;2022-10-13T15:17:34;1560.00;;;866.20;;
69026;SDS011;56080;47.594;19.116;2022-10-13T15:22:34;1560.00;;;866.20;;
69026;SDS011;56080;47.594;19.116;2022-10-13T15:27:34;1472.70;;;852.20;;
69026;SDS011;56080;47.594;19.116;2022-10-13T15:32:34;1472.70;;;852.20;;
69026;SDS011;56080;47.594;19.116;2022-10-13T15:37:33;1472.70;;;852.20;;
69026;SDS011;56080;47.594;19.116;2022-10-13T15:42:34;1425.70;;;730.80;;
69026;SDS011;56080;47.594;19.116;2022-10-13T15:47:33;1425.70;;;730.80;;
69026;SDS011;56080;47.594;19.116;2022-10-13T15:52:38;1399.10;;;664.90;;
69026;SDS011;56080;47.594;19.116;2022-10-13T15:57:34;1399.10;;;664.90;;
69026;SDS011;56080;47.594;19.116;2022-10-13T16:02:34;1382.70;;;668.80;;
69026;SDS011;56080;47.594;19.116;2022-10-13T16:07:34;1382.70;;;668.80;;
69026;SDS011;56080;47.594;19.116;2022-10-13T16:12:34;1374.20;;;659.30;;
69026;SDS011;56080;47.594;19.116;2022-10-13T16:17:34;1374.20;;;659.30;;
69026;SDS011;56080;47.594;19.116;2022-10-13T16:22:34;1378.70;;;669.70;;
69026;SDS011;56080;47.594;19.116;2022-10-13T16:27:33;1378.70;;;669.70;;
69026;SDS011;56080;47.594;19.116;2022-10-13T16:32:41;1343.00;;;657.60;;
69026;SDS011;56080;47.594;19.116;2022-10-13T16:37:34;1343.00;;;657.60;;
69026;SDS011;56080;47.594;19.116;2022-10-13T16:42:36;1325.10;;;628.20;;
69026;SDS011;56080;47.594;19.116;2022-10-13T16:47:34;1325.10;;;628.20;;
69026;SDS011;56080;47.594;19.116;2022-10-13T16:52:36;1320.30;;;636.90;;
69026;SDS011;56080;47.594;19.116;2022-10-13T16:57:34;1320.30;;;636.90;;
69026;SDS011;56080;47.594;19.116;2022-10-13T17:02:34;1323.10;;;635.80;;
69026;SDS011;56080;47.594;19.116;2022-10-13T17:07:34;1323.10;;;635.80;;
69026;SDS011;56080;47.594;19.116;2022-10-13T17:12:34;1345.80;;;649.50;;
69026;SDS011;56080;47.594;19.116;2022-10-13T17:17:36;1345.80;;;649.50;;
69026;SDS011;56080;47.594;19.116;2022-10-13T17:22:33;1037.60;;;457.00;;
69026;SDS011;56080;47.594;19.116;2022-10-13T17:27:35;1037.60;;;457.00;;
69026;SDS011;56080;47.594;19.116;2022-10-13T17:32:37;1100.50;;;492.60;;
69026;SDS011;56080;47.594;19.116;2022-10-13T17:37:35;1100.50;;;492.60;;
69026;SDS011;56080;47.594;19.116;2022-10-13T17:42:34;1125.10;;;508.30;;
69026;SDS011;56080;47.594;19.116;2022-10-13T17:47:34;1125.10;;;508.30;;
69026;SDS011;56080;47.594;19.116;2022-10-13T17:52:34;1178.60;;;530.20;;
69026;SDS011;56080;47.594;19.116;2022-10-13T17:57:34;1178.60;;;530.20;;
69026;SDS011;56080;47.594;19.116;2022-10-13T18:02:38;1142.40;;;517.90;;
69026;SDS011;56080;47.594;19.116;2022-10-13T18:07:36;1142.40;;;517.90;;
69026;SDS011;56080;47.594;19.116;2022-10-13T18:12:33;1143.80;;;508.10;;
69026;SDS011;56080;47.594;19.116;2022-10-13T18:17:34;1143.80;;;508.10;;
69026;SDS011;56080;47.594;19.116;2022-10-13T18:22:35;1129.60;;;502.30;;
69026;SDS011;56080;47.594;19.116;2022-10-13T18:27:34;1129.60;;;502.30;;
69026;SDS011;56080;47.594;19.116;2022-10-13T18:32:34;1122.60;;;502.10;;
69026;SDS011;56080;47.594;19.116;2022-10-13T18:37:34;1122.60;;;502.10;;
69026;SDS011;56080;47.594;19.116;2022-10-13T18:42:34;1166.90;;;516.00;;
69026;SDS011;56080;47.594;19.116;2022-10-13T18:47:34;1166.90;;;516.00;;
69026;SDS011;56080;47.594;19.116;2022-10-13T18:52:34;1176.20;;;520.30;;
69026;SDS011;56080;47.594;19.116;2022-10-13T18:57:34;1176.20;;;520.30;;
69026;SDS011;56080;47.594;19.116;2022-10-13T19:02:34;1192.60;;;529.50;;
69026;SDS011;56080;47.594;19.116;2022-10-13T19:07:36;1192.60;;;529.50;;
69026;SDS011;56080;47.594;19.116;2022-10-13T19:12:36;1148.90;;;516.90;;
69026;SDS011;56080;47.594;19.116;2022-10-13T19:17:34;1148.90;;;516.90;;
69026;SDS011;56080;47.594;19.116;2022-10-13T19:22:34;1235.60;;;637.80;;
69026;SDS011;56080;47.594;19.116;2022-10-13T19:27:34;1235.60;;;637.80;;
69026;SDS011;56080;47.594;19.116;2022-10-13T19:32:33;1231.10;;;646.70;;
69026;SDS011;56080;47.594;19.116;2022-10-13T19:37:35;1231.10;;;646.70;;
69026;SDS011;56080;47.594;19.116;2022-10-13T19:42:34;1209.50;;;626.20;;
69026;SDS011;56080;47.594;19.116;2022-10-13T19:47:34;1209.50;;;626.20;;
69026;SDS011;56080;47.594;19.116;2022-10-13T19:52:35;1152.40;;;546.60;;
69026;SDS011;56080;47.594;19.116;2022-10-13T19:57:34;1152.40;;;546.60;;
69026;SDS011;56080;47.594;19.116;2022-10-13T20:02:34;1145.30;;;535.30;;
69026;SDS011;56080;47.594;19.116;2022-10-13T20:07:34;1145.30;;;535.30;;
69026;SDS011;56080;47.594;19.116;2022-10-13T20:12:34;1258.10;;;661.50;;
69026;SDS011;56080;47.594;19.116;2022-10-13T20:22:34;1241.00;;;604.00;;
69026;SDS011;56080;47.594;19.116;2022-10-13T20:27:34;1241.00;;;604.00;;
69026;SDS011;56080;47.594;19.116;2022-10-13T20:32:33;1234.90;;;608.50;;
69026;SDS011;56080;47.594;19.116;2022-10-13T20:37:37;1234.90;;;608.50;;
69026;SDS011;56080;47.594;19.116;2022-10-13T20:42:34;1307.70;;;776.40;;
69026;SDS011;56080;47.594;19.116;2022-10-13T20:47:34;1307.70;;;776.40;;
69026;SDS011;56080;47.594;19.116;2022-10-13T20:52:33;1280.60;;;773.70;;
69026;SDS011;56080;47.594;19.116;2022-10-13T20:57:34;1280.60;;;773.70;;
69026;SDS011;56080;47.594;19.116;2022-10-13T21:02:34;1163.40;;;556.00;;
69026;SDS011;56080;47.594;19.116;2022-10-13T21:07:34;1163.40;;;556.00;;
69026;SDS011;56080;47.594;19.116;2022-10-13T21:12:34;1193.20;;;578.30;;
69026;SDS011;56080;47.594;19.116;2022-10-13T21:17:34;1193.20;;;578.30;;
69026;SDS011;56080;47.594;19.116;2022-10-13T21:22:34;1215.40;;;615.30;;
69026;SDS011;56080;47.594;19.116;2022-10-13T21:27:34;1215.40;;;615.30;;
69026;SDS011;56080;47.594;19.116;2022-10-13T21:32:34;1230.70;;;661.10;;
69026;SDS011;56080;47.594;19.116;2022-10-13T21:37:35;1230.70;;;661.10;;
69026;SDS011;56080;47.594;19.116;2022-10-13T21:42:34;1273.50;;;665.90;;
69026;SDS011;56080;47.594;19.116;2022-10-13T21:47:37;1273.50;;;665.90;;
69026;SDS011;56080;47.594;19.116;2022-10-13T21:52:34;1352.50;;;738.20;;
69026;SDS011;56080;47.594;19.116;2022-10-13T21:57:34;1352.50;;;738.20;;
69026;SDS011;56080;47.594;19.116;2022-10-13T22:02:34;1286.80;;;760.50;;
69026;SDS011;56080;47.594;19.116;2022-10-13T22:07:34;1286.80;;;760.50;;
69026;SDS011;56080;47.594;19.116;2022-10-13T22:12:34;1229.40;;;716.20;;
69026;SDS011;56080;47.594;19.116;2022-10-13T22:22:40;1198.60;;;724.50;;
69026;SDS011;56080;47.594;19.116;2022-10-13T22:27:34;1198.60;;;724.50;;
69026;SDS011;56080;47.594;19.116;2022-10-13T22:32:33;1148.50;;;687.80;;
69026;SDS011;56080;47.594;19.116;2022-10-13T22:37:34;1148.50;;;687.80;;
69026;SDS011;56080;47.594;19.116;2022-10-13T22:42:34;1143.60;;;682.50;;
69026;SDS011;56080;47.594;19.116;2022-10-13T22:47:35;1143.60;;;682.50;;
69026;SDS011;56080;47.594;19.116;2022-10-13T22:52:34;1136.10;;;675.40;;
69026;SDS011;56080;47.594;19.116;2022-10-13T22:57:34;1136.10;;;675.40;;
69026;SDS011;56080;47.594;19.116;2022-10-13T23:02:34;1158.60;;;694.60;;
69026;SDS011;56080;47.594;19.116;2022-10-13T23:07:34;1158.60;;;694.60;;
69026;SDS011;56080;47.594;19.116;2022-10-13T23:12:34;1135.40;;;680.00;;
69026;SDS011;56080;47.594;19.116;2022-10-13T23:17:34;1135.40;;;680.00;;
69026;SDS011;56080;47.594;19.116;2022-10-13T23:22:34;1101.70;;;652.20;;
69026;SDS011;56080;47.594;19.116;2022-10-13T23:27:34;1101.70;;;652.20;;
69026;SDS011;56080;47.594;19.116;2022-10-13T23:32:34;1100.70;;;649.30;;
69026;SDS011;56080;47.594;19.116;2022-10-13T23:37:34;1100.70;;;649.30;;
69026;SDS011;56080;47.594;19.116;2022-10-13T23:42:34;1109.90;;;655.50;;
69026;SDS011;56080;47.594;19.116;2022-10-13T23:47:34;1109.90;;;655.50;;
69026;SDS011;56080;47.594;19.116;2022-10-13T23:52:34;1094.30;;;656.00;;
69026;SDS011;56080;47.594;19.116;2022-10-13T23:57:34;1094.30;;;656.00;;
